createdAt,value
2018-06-17T00:01:15.170Z,18.89
2018-06-17T00:03:45.476Z,18.86
2018-06-17T00:06:15.386Z,18.82
2018-06-17T00:08:45.735Z,18.85
2018-06-17T00:11:15.631Z,18.89
2018-06-17T00:13:46.396Z,19.01
2018-06-17T00:16:16.816Z,18.98
2018-06-17T00:18:46.565Z,19.00
2018-06-17T00:21:16.341Z,18.96
2018-06-17T00:23:46.061Z,18.94
2018-06-17T00:26:16.312Z,18.89
2018-06-17T00:28:46.012Z,18.93
2018-06-17T00:31:15.809Z,18.95
2018-06-17T00:33:46.217Z,18.99
2018-06-17T00:36:15.979Z,18.97
2018-06-17T00:38:45.692Z,18.94
2018-06-17T00:41:15.473Z,18.93
2018-06-17T00:43:45.248Z,19.00
2018-06-17T00:46:14.828Z,18.88
2018-06-17T00:48:44.774Z,18.87
2018-06-17T00:51:14.730Z,18.73
2018-06-17T00:53:46.233Z,18.74
2018-06-17T00:56:16.046Z,18.76
2018-06-17T00:58:45.726Z,18.74
2018-06-17T01:01:16.560Z,18.80
2018-06-17T01:03:46.344Z,18.83
2018-06-17T01:06:16.215Z,18.82
2018-06-17T01:08:46.545Z,18.70
2018-06-17T01:11:17.207Z,18.65
2018-06-17T01:13:46.944Z,18.70
2018-06-17T01:16:16.752Z,18.68
2018-06-17T01:18:46.842Z,18.61
2018-06-17T01:21:16.590Z,18.72
2018-06-17T01:23:46.678Z,18.67
2018-06-17T01:26:17.328Z,18.74
2018-06-17T01:28:47.271Z,18.73
2018-06-17T01:31:17.215Z,18.77
2018-06-17T01:33:48.850Z,18.87
2018-06-17T01:36:18.891Z,18.91
2018-06-17T01:38:48.922Z,18.88
2018-06-17T01:41:20.341Z,18.81
2018-06-17T01:43:51.100Z,18.71
2018-06-17T01:46:22.580Z,18.64
2018-06-17T01:48:52.406Z,18.67
2018-06-17T01:51:22.115Z,18.73
2018-06-17T01:53:51.829Z,18.73
2018-06-17T01:56:22.608Z,18.85
2018-06-17T01:58:53.028Z,18.82
2018-06-17T02:01:22.818Z,18.82
2018-06-17T02:03:57.724Z,18.79
2018-06-17T02:06:32.500Z,18.78
2018-06-17T02:09:07.237Z,18.72
2018-06-17T02:11:41.265Z,18.77
2018-06-17T02:14:16.067Z,18.72
2018-06-17T02:16:46.042Z,18.60
2018-06-17T02:19:15.765Z,18.65
2018-06-17T02:21:45.472Z,18.57
2018-06-17T02:24:15.178Z,18.60
2018-06-17T02:26:45.129Z,18.62
2018-06-17T02:29:14.546Z,18.46
2018-06-17T02:31:45.013Z,18.54
2018-06-17T02:34:14.852Z,18.54
2018-06-17T02:36:44.906Z,18.55
2018-06-17T02:39:14.742Z,18.55
2018-06-17T02:41:44.419Z,18.47
2018-06-17T02:44:14.072Z,18.43
2018-06-17T02:46:49.012Z,18.41
2018-06-17T02:49:25.454Z,18.26
2018-06-17T02:52:00.172Z,18.32
2018-06-17T02:54:34.845Z,18.36
2018-06-17T02:57:05.544Z,18.30
2018-06-17T02:59:35.702Z,18.18
2018-06-17T03:02:07.197Z,18.11
2018-06-17T03:04:37.198Z,18.13
2018-06-17T03:07:08.168Z,18.14
2018-06-17T03:09:38.019Z,18.06
2018-06-17T03:12:08.106Z,18.08
2018-06-17T03:14:37.815Z,18.16
2018-06-17T03:17:07.743Z,18.18
2018-06-17T03:19:37.456Z,18.29
2018-06-17T03:22:08.498Z,18.33
2018-06-17T03:24:44.100Z,18.30
2018-06-17T03:27:19.102Z,18.27
2018-06-17T03:29:54.198Z,18.23
2018-06-17T03:32:30.170Z,18.23
2018-06-17T03:35:06.489Z,18.19
2018-06-17T03:37:36.858Z,18.18
2018-06-17T03:40:09.388Z,18.14
2018-06-17T03:42:39.054Z,18.11
2018-06-17T03:45:10.051Z,18.09
2018-06-17T03:47:39.921Z,18.03
2018-06-17T03:50:09.646Z,17.98
2018-06-17T03:52:41.175Z,17.96
2018-06-17T03:55:10.951Z,17.98
2018-06-17T03:57:40.733Z,18.02
2018-06-17T04:00:10.504Z,18.04
2018-06-17T04:02:40.170Z,18.06
2018-06-17T04:05:15.110Z,18.12
2018-06-17T04:07:45.054Z,18.20
2018-06-17T04:10:14.981Z,18.25
2018-06-17T04:12:44.901Z,18.31
2018-06-17T04:15:14.875Z,18.37
2018-06-17T04:17:44.771Z,18.35
2018-06-17T04:20:15.186Z,18.29
2018-06-17T04:22:45.120Z,18.35
2018-06-17T04:25:14.851Z,18.40
2018-06-17T04:27:44.742Z,18.44
2018-06-17T04:30:15.443Z,18.45
2018-06-17T04:32:45.972Z,18.45
2018-06-17T04:35:16.389Z,18.52
2018-06-17T04:37:46.354Z,18.51
2018-06-17T04:40:16.016Z,18.49
2018-06-17T04:42:46.534Z,18.47
2018-06-17T04:45:17.609Z,18.50
2018-06-17T04:47:47.440Z,18.55
2018-06-17T04:50:17.482Z,18.60
2018-06-17T04:52:48.199Z,18.67
2018-06-17T04:55:18.773Z,18.70
2018-06-17T04:57:48.837Z,18.70
2018-06-17T05:00:18.990Z,18.73
2018-06-17T05:02:49.662Z,18.78
2018-06-17T05:05:20.628Z,18.85
2018-06-17T05:07:50.799Z,18.77
2018-06-17T05:10:22.252Z,18.64
2018-06-17T05:12:51.975Z,18.69
2018-06-17T05:15:21.674Z,18.72
2018-06-17T05:17:51.526Z,18.75
2018-06-17T05:20:21.465Z,18.82
2018-06-17T05:22:51.327Z,18.88
2018-06-17T05:25:21.112Z,18.97
2018-06-17T05:27:50.906Z,19.04
2018-06-17T05:30:20.685Z,19.03
2018-06-17T05:32:50.577Z,19.08
2018-06-17T05:35:20.977Z,19.11
2018-06-17T05:37:51.414Z,19.20
2018-06-17T05:40:21.151Z,19.30
2018-06-17T05:42:51.484Z,19.37
2018-06-17T05:45:21.558Z,19.33
2018-06-17T05:47:51.281Z,19.34
2018-06-17T05:50:21.430Z,19.43
2018-06-17T05:52:51.920Z,19.54
2018-06-17T05:55:21.738Z,19.54
2018-06-17T05:57:51.576Z,19.55
2018-06-17T06:00:21.833Z,19.37
2018-06-17T06:02:51.646Z,19.16
2018-06-17T06:05:21.349Z,19.04
2018-06-17T06:07:51.043Z,18.91
2018-06-17T06:10:20.864Z,19.02
2018-06-17T06:12:50.582Z,19.04
2018-06-17T06:16:49.883Z,19.03
2018-06-17T06:19:19.692Z,19.10
2018-06-17T06:21:49.821Z,19.11
2018-06-17T06:24:19.447Z,19.10
2018-06-17T06:26:49.632Z,19.09
2018-06-17T06:29:19.972Z,19.10
2018-06-17T06:31:51.197Z,19.05
2018-06-17T06:34:21.159Z,19.03
2018-06-17T06:36:51.506Z,19.12
2018-06-17T06:39:21.271Z,19.01
2018-06-17T06:41:51.001Z,18.94
2018-06-17T06:44:21.496Z,18.94
2018-06-17T06:46:51.653Z,18.90
2018-06-17T06:49:21.722Z,18.86
2018-06-17T06:51:51.494Z,18.85
2018-06-17T06:54:21.405Z,18.84
2018-06-17T06:56:51.270Z,18.82
2018-06-17T06:59:21.187Z,18.91
2018-06-17T07:02:08.452Z,18.97
2018-06-17T07:05:58.088Z,18.97
2018-06-17T07:08:44.515Z,18.98
2018-06-17T07:11:14.207Z,19.13
2018-06-17T07:13:43.978Z,19.11
2018-06-17T07:16:30.421Z,19.20
2018-06-17T07:19:00.311Z,19.29
2018-06-17T07:21:31.213Z,19.38
2018-06-17T07:24:01.056Z,19.47
2018-06-17T07:26:49.330Z,19.54
2018-06-17T07:29:31.161Z,19.51
2018-06-17T07:32:01.535Z,19.42
2018-06-17T07:34:31.336Z,19.49
2018-06-17T07:37:01.278Z,19.62
2018-06-17T07:41:40.842Z,19.66
2018-06-17T07:44:10.601Z,19.81
2018-06-17T07:46:40.731Z,19.82
2018-06-17T07:49:37.723Z,19.91
2018-06-17T07:52:25.497Z,20.02
2018-06-17T07:54:55.332Z,20.01
2018-06-17T07:57:26.352Z,19.99
2018-06-17T07:59:57.565Z,20.02
2018-06-17T08:02:29.046Z,20.07
2018-06-17T08:04:58.861Z,20.18
2018-06-17T08:07:28.941Z,20.26
2018-06-17T08:09:59.963Z,20.38
2018-06-17T08:12:30.552Z,20.54
2018-06-17T08:15:00.264Z,20.77
2018-06-17T08:17:31.259Z,20.87
2018-06-17T08:20:01.180Z,20.91
2018-06-17T08:22:31.636Z,20.90
2018-06-17T08:25:04.762Z,20.83
2018-06-17T08:27:34.304Z,20.78
2018-06-17T08:30:04.926Z,20.79
2018-06-17T08:32:34.307Z,20.71
2018-06-17T08:35:06.065Z,20.57
2018-06-17T08:37:36.872Z,20.40
2018-06-17T08:40:06.709Z,20.37
2018-06-17T08:42:36.544Z,20.42
2018-06-17T08:45:07.643Z,20.57
2018-06-17T08:47:40.439Z,20.68
2018-06-17T08:50:11.748Z,20.75
2018-06-17T08:52:43.169Z,20.82
2018-06-17T08:55:14.470Z,20.83
2018-06-17T08:57:45.323Z,20.94
2018-06-17T09:00:16.134Z,20.99
2018-06-17T09:04:14.928Z,21.13
2018-06-17T09:06:46.638Z,21.27
2018-06-17T09:09:17.636Z,21.40
2018-06-17T09:11:52.511Z,21.51
2018-06-17T09:14:28.825Z,21.69
2018-06-17T09:17:01.257Z,21.79
2018-06-17T09:19:32.915Z,21.70
2018-06-17T09:22:05.246Z,21.50
2018-06-17T09:24:37.342Z,21.44
2018-06-17T09:27:07.760Z,21.41
2018-06-17T09:29:37.683Z,21.47
2018-06-17T09:32:08.020Z,21.38
2018-06-17T09:34:37.707Z,21.29
2018-06-17T09:37:07.837Z,21.38
2018-06-17T09:39:37.623Z,21.55
2018-06-17T09:42:09.476Z,21.58
2018-06-17T09:44:39.882Z,21.71
2018-06-17T09:47:09.568Z,21.78
2018-06-17T09:49:40.521Z,21.63
2018-06-17T09:52:10.595Z,21.64
2018-06-17T09:54:41.705Z,21.79
2018-06-17T09:57:11.421Z,21.97
2018-06-17T09:59:42.200Z,22.04
2018-06-17T10:02:13.550Z,22.01
2018-06-17T10:04:44.690Z,21.77
2018-06-17T10:07:15.977Z,21.82
2018-06-17T10:10:04.080Z,21.76
2018-06-17T10:12:34.896Z,21.81
2018-06-17T10:15:05.138Z,21.96
2018-06-17T10:17:34.919Z,22.10
2018-06-17T10:20:05.780Z,22.11
2018-06-17T10:22:35.836Z,22.10
2018-06-17T10:25:05.702Z,22.24
2018-06-17T10:27:40.889Z,22.29
2018-06-17T10:30:13.369Z,22.30
2018-06-17T10:32:45.035Z,22.45
2018-06-17T10:35:15.528Z,22.42
2018-06-17T10:37:46.393Z,22.34
2018-06-17T10:40:18.940Z,22.29
2018-06-17T10:42:50.832Z,22.26
2018-06-17T10:45:21.138Z,22.25
2018-06-17T10:47:51.506Z,22.37
2018-06-17T10:50:23.126Z,22.54
2018-06-17T10:52:52.766Z,22.58
2018-06-17T10:55:22.979Z,22.58
2018-06-17T10:57:53.595Z,22.49
2018-06-17T11:00:23.502Z,22.50
2018-06-17T11:02:53.408Z,22.58
2018-06-17T11:05:23.196Z,22.29
2018-06-17T11:07:53.566Z,22.26
2018-06-17T11:10:25.373Z,22.30
2018-06-17T11:12:55.147Z,22.47
2018-06-17T11:15:25.425Z,22.64
2018-06-17T11:17:56.478Z,22.87
2018-06-17T11:20:26.317Z,22.93
2018-06-17T11:22:56.176Z,22.78
2018-06-17T11:25:28.021Z,22.51
2018-06-17T11:27:58.140Z,22.23
2018-06-17T11:30:28.287Z,22.20
2018-06-17T11:32:59.408Z,22.33
2018-06-17T11:35:29.428Z,22.42
2018-06-17T11:37:59.496Z,22.47
2018-06-17T11:40:29.601Z,22.49
2018-06-17T11:42:59.514Z,22.58
2018-06-17T11:45:29.488Z,22.69
2018-06-17T11:48:00.280Z,22.74
2018-06-17T11:50:31.595Z,22.68
2018-06-17T11:53:01.671Z,22.62
2018-06-17T11:55:31.904Z,22.48
2018-06-17T11:58:01.785Z,22.45
2018-06-17T12:00:33.082Z,22.60
2018-06-17T12:03:03.863Z,22.67
2018-06-17T12:05:33.704Z,22.70
2018-06-17T12:10:41.157Z,22.69
2018-06-17T12:13:11.917Z,22.76
2018-06-17T12:15:42.599Z,22.75
2018-06-17T12:18:13.284Z,22.61
2018-06-17T12:20:43.926Z,22.68
2018-06-17T12:23:13.736Z,22.74
2018-06-17T12:25:43.553Z,22.60
2018-06-17T12:28:13.228Z,22.46
2018-06-17T12:30:42.941Z,22.62
2018-06-17T12:33:13.444Z,22.75
2018-06-17T12:35:43.506Z,22.87
2018-06-17T12:38:13.244Z,23.26
2018-06-17T12:40:44.101Z,23.47
2018-06-17T12:43:13.884Z,23.79
2018-06-17T12:45:43.795Z,23.80
2018-06-17T12:48:15.932Z,23.92
2018-06-17T12:50:46.405Z,24.17
2018-06-17T12:53:17.038Z,24.47
2018-06-17T12:55:48.664Z,24.61
2018-06-17T12:58:18.885Z,24.35
2018-06-17T13:00:49.677Z,23.75
2018-06-17T13:03:24.551Z,23.45
2018-06-17T13:05:57.199Z,23.25
2018-06-17T13:08:28.971Z,23.11
2018-06-17T13:10:58.964Z,23.09
2018-06-17T13:13:30.548Z,23.11
2018-06-17T13:16:02.864Z,23.08
2018-06-17T13:18:33.459Z,23.00
2018-06-17T13:21:05.645Z,22.95
2018-06-17T13:23:37.723Z,23.23
2018-06-17T13:26:08.386Z,23.44
2018-06-17T13:28:39.148Z,23.61
2018-06-17T13:31:08.922Z,23.82
2018-06-17T13:33:39.224Z,23.85
2018-06-17T13:36:09.736Z,23.61
2018-06-17T13:38:39.582Z,23.79
2018-06-17T13:41:10.470Z,23.97
2018-06-17T13:43:41.370Z,24.00
2018-06-17T13:46:11.141Z,23.99
2018-06-17T13:48:40.953Z,24.06
2018-06-17T13:51:11.885Z,24.15
2018-06-17T13:53:41.961Z,24.06
2018-06-17T13:56:11.640Z,23.87
2018-06-17T13:58:42.060Z,23.78
2018-06-17T14:01:11.731Z,23.49
2018-06-17T14:03:41.924Z,23.62
2018-06-17T14:06:11.617Z,23.59
2018-06-17T14:08:42.467Z,23.49
2018-06-17T14:11:12.231Z,23.39
2018-06-17T14:13:43.120Z,23.20
2018-06-17T14:16:13.515Z,23.13
2018-06-17T14:18:43.311Z,23.09
2018-06-17T14:21:13.013Z,22.79
2018-06-17T14:23:42.892Z,22.74
2018-06-17T14:26:12.763Z,22.74
2018-06-17T14:28:42.515Z,22.69
2018-06-17T14:31:12.734Z,22.47
2018-06-17T14:33:42.626Z,22.31
2018-06-17T14:36:12.530Z,22.12
2018-06-17T14:38:42.278Z,22.07
2018-06-17T14:41:18.865Z,22.10
2018-06-17T14:46:28.842Z,22.01
2018-06-17T14:49:03.585Z,21.92
2018-06-17T14:51:38.731Z,21.80
2018-06-17T14:54:08.660Z,21.78
2018-06-17T14:56:38.384Z,21.76
2018-06-17T14:59:08.205Z,21.75
2018-06-17T15:01:37.588Z,21.75
2018-06-17T15:04:07.767Z,21.69
2018-06-17T15:06:37.507Z,21.74
2018-06-17T15:09:09.692Z,21.84
2018-06-17T15:11:39.530Z,21.84
2018-06-17T15:14:09.306Z,21.92
2018-06-17T15:16:39.221Z,21.93
2018-06-17T15:19:08.623Z,21.91
2018-06-17T15:21:38.342Z,21.86
2018-06-17T15:24:08.193Z,21.97
2018-06-17T15:26:37.866Z,22.10
2018-06-17T15:29:07.724Z,22.18
2018-06-17T15:31:43.028Z,22.22
2018-06-17T15:34:17.929Z,22.10
2018-06-17T15:36:52.786Z,22.31
2018-06-17T15:39:27.810Z,22.62
2018-06-17T15:41:57.702Z,22.92
2018-06-17T15:44:27.388Z,22.91
2018-06-17T15:46:57.304Z,22.90
2018-06-17T15:49:27.167Z,22.79
2018-06-17T15:51:56.955Z,22.63
2018-06-17T15:54:26.762Z,22.35
2018-06-17T15:56:56.777Z,22.20
2018-06-17T15:59:26.719Z,22.16
2018-06-17T16:01:56.961Z,21.92
2018-06-17T16:04:27.673Z,21.83
2018-06-17T16:06:57.563Z,21.67
2018-06-17T16:09:27.402Z,21.50
2018-06-17T16:13:00.794Z,21.57
2018-06-17T16:15:35.818Z,21.55
2018-06-17T16:18:10.573Z,21.55
2018-06-17T16:20:45.526Z,21.63
2018-06-17T16:23:15.226Z,21.63
2018-06-17T16:25:45.059Z,21.66
2018-06-17T16:28:15.202Z,21.63
2018-06-17T16:30:45.726Z,21.69
2018-06-17T16:33:15.499Z,21.84
2018-06-17T16:35:45.412Z,21.93
2018-06-17T16:38:15.095Z,22.07
2018-06-17T16:40:45.734Z,22.20
2018-06-17T16:43:15.450Z,22.19
2018-06-17T16:45:45.239Z,22.27
2018-06-17T16:48:15.274Z,22.07
2018-06-17T16:50:50.154Z,21.94
2018-06-17T16:53:25.025Z,21.84
2018-06-17T16:55:59.811Z,21.86
2018-06-17T16:58:34.598Z,21.84
2018-06-17T17:01:04.455Z,21.87
2018-06-17T17:03:34.192Z,21.74
2018-06-17T17:06:04.888Z,21.51
2018-06-17T17:08:34.863Z,21.35
2018-06-17T17:11:04.525Z,21.33
2018-06-17T17:13:34.299Z,21.35
2018-06-17T17:16:04.169Z,21.39
2018-06-17T17:18:33.973Z,21.44
2018-06-17T17:21:04.337Z,21.43
2018-06-17T17:23:33.987Z,21.44
2018-06-17T17:26:03.798Z,21.48
2018-06-17T17:28:33.705Z,21.32
2018-06-17T17:31:03.519Z,21.27
2018-06-17T17:33:38.509Z,21.31
2018-06-17T17:36:13.430Z,21.28
2018-06-17T17:38:48.926Z,21.20
2018-06-17T17:41:18.871Z,21.18
2018-06-17T17:43:48.596Z,21.14
2018-06-17T17:46:23.801Z,21.13
2018-06-17T17:48:53.442Z,21.15
2018-06-17T17:51:23.206Z,21.17
2018-06-17T17:53:52.936Z,21.11
2018-06-17T17:56:22.676Z,21.09
2018-06-17T17:58:52.557Z,21.10
2018-06-17T18:01:22.259Z,21.20
2018-06-17T18:03:52.022Z,21.29
2018-06-17T18:06:21.826Z,21.33
2018-06-17T18:08:52.150Z,21.27
2018-06-17T18:11:22.065Z,21.23
2018-06-17T18:13:51.914Z,21.26
2018-06-17T18:16:21.410Z,21.28
2018-06-17T18:18:51.102Z,21.30
2018-06-17T18:21:20.739Z,21.34
2018-06-17T18:23:50.466Z,21.33
2018-06-17T18:26:26.274Z,21.30
2018-06-17T18:33:39.997Z,21.30
2018-06-17T18:36:12.301Z,21.25
2018-06-17T18:38:43.573Z,21.18
2018-06-17T18:41:14.423Z,21.15
2018-06-17T18:43:44.173Z,21.12
2018-06-17T18:46:14.695Z,21.09
2018-06-17T18:48:44.911Z,21.07
2018-06-17T18:51:15.528Z,21.05
2018-06-17T18:53:45.413Z,20.98
2018-06-17T18:56:15.404Z,20.91
2018-06-17T18:58:45.262Z,20.89
2018-06-17T19:01:15.920Z,20.85
2018-06-17T19:03:45.721Z,20.78
2018-06-17T19:06:15.540Z,20.79
2018-06-17T19:08:50.556Z,20.81
2018-06-17T19:11:25.367Z,20.81
2018-06-17T19:14:00.336Z,20.81
2018-06-17T19:16:35.187Z,20.71
2018-06-17T19:19:05.030Z,20.71
2018-06-17T19:21:35.909Z,20.67
2018-06-17T19:24:05.658Z,20.63
2018-06-17T19:26:35.739Z,20.62
2018-06-17T19:29:05.504Z,20.60
2018-06-17T19:31:35.464Z,20.60
2018-06-17T19:34:05.793Z,20.57
2018-06-17T19:36:35.739Z,20.57
2018-06-17T19:39:08.689Z,20.55
2018-06-17T19:41:38.335Z,20.54
2018-06-17T19:44:08.410Z,20.54
2018-06-17T19:46:38.189Z,20.45
2018-06-17T19:49:08.011Z,20.32
2018-06-17T19:51:42.855Z,20.34
2018-06-17T19:54:17.739Z,20.34
2018-06-17T19:56:54.723Z,20.32
2018-06-17T19:59:29.546Z,20.21
2018-06-17T20:01:59.430Z,20.18
2018-06-17T20:04:29.195Z,20.21
2018-06-17T20:06:59.055Z,20.11
2018-06-17T20:09:28.947Z,20.08
2018-06-17T20:11:58.807Z,20.14
2018-06-17T20:14:28.523Z,20.16
2018-06-17T20:16:58.401Z,20.18
2018-06-17T20:19:28.138Z,20.18
2018-06-17T20:21:57.962Z,20.17
2018-06-17T20:24:28.438Z,20.15
2018-06-17T20:26:58.573Z,20.12
2018-06-17T20:29:28.133Z,20.04
2018-06-17T20:32:03.182Z,20.03
2018-06-17T20:34:38.074Z,19.95
2018-06-17T20:37:13.036Z,19.88
2018-06-17T20:39:48.094Z,19.87
2018-06-17T20:42:23.056Z,19.88
2018-06-17T20:44:52.760Z,19.88
2018-06-17T20:47:22.518Z,19.89
2018-06-17T20:49:52.350Z,19.84
2018-06-17T20:52:22.155Z,19.82
2018-06-17T20:54:51.968Z,19.80
2018-06-17T20:57:21.693Z,19.79
2018-06-17T20:59:51.684Z,19.84
2018-06-17T21:02:21.588Z,19.77
2018-06-17T21:04:51.481Z,19.77
2018-06-17T21:07:21.942Z,19.75
2018-06-17T21:09:51.761Z,19.67
2018-06-17T21:12:21.684Z,19.70
2018-06-17T21:14:51.347Z,19.69
2018-06-17T21:17:21.054Z,19.71
2018-06-17T21:19:55.865Z,19.73
2018-06-17T21:22:31.013Z,19.71
2018-06-17T21:25:05.922Z,19.66
2018-06-17T21:27:44.938Z,19.62
2018-06-17T21:30:14.822Z,19.59
2018-06-17T21:32:44.786Z,19.54
2018-06-17T21:35:14.611Z,19.53
2018-06-17T21:37:44.412Z,19.48
2018-06-17T21:40:14.201Z,19.50
2018-06-17T21:42:44.120Z,19.49
2018-06-17T21:45:13.927Z,19.44
2018-06-17T21:47:44.171Z,19.45
2018-06-17T21:50:13.952Z,19.45
2018-06-17T21:52:43.760Z,19.45
2018-06-17T21:55:13.446Z,19.44
2018-06-17T21:57:43.142Z,19.42
2018-06-17T22:00:12.846Z,19.41
2018-06-17T22:02:43.012Z,19.37
2018-06-17T22:05:13.287Z,19.26
2018-06-17T22:07:48.326Z,19.10
2018-06-17T22:10:23.338Z,19.08
2018-06-17T22:12:58.453Z,19.12
2018-06-17T22:15:33.475Z,19.10
2018-06-17T22:18:03.856Z,19.18
2018-06-17T22:20:33.549Z,19.17
2018-06-17T22:23:03.387Z,19.16
2018-06-17T22:25:33.093Z,19.11
2018-06-17T22:28:03.148Z,19.10
2018-06-17T22:30:33.143Z,19.08
2018-06-17T22:33:03.139Z,19.09
2018-06-17T22:35:33.313Z,19.08
2018-06-17T22:38:03.178Z,19.07
2018-06-17T22:40:33.178Z,19.05
2018-06-17T22:43:02.936Z,19.05
2018-06-17T22:45:32.851Z,19.03
2018-06-17T22:48:02.653Z,18.97
2018-06-17T22:50:32.351Z,18.90
2018-06-17T22:53:18.789Z,18.77
2018-06-17T22:55:48.544Z,18.63
2018-06-17T22:58:23.278Z,18.58
2018-06-17T23:00:58.235Z,18.53
2018-06-17T23:03:33.156Z,18.47
2018-06-17T23:06:08.060Z,18.49
2018-06-17T23:08:42.848Z,18.31
2018-06-17T23:11:12.480Z,18.20
2018-06-17T23:13:43.101Z,18.18
2018-06-17T23:16:12.849Z,18.18
2018-06-17T23:18:42.796Z,18.13
2018-06-17T23:21:12.499Z,18.11
2018-06-17T23:23:42.288Z,18.14
2018-06-17T23:26:11.949Z,18.06
2018-06-17T23:28:43.652Z,18.02
2018-06-17T23:31:14.011Z,17.91
2018-06-17T23:33:43.694Z,17.85
2018-06-17T23:36:14.241Z,17.76
2018-06-17T23:38:43.949Z,17.68
2018-06-17T23:41:15.994Z,17.64
2018-06-17T23:43:47.472Z,17.65
2018-06-17T23:46:22.297Z,17.72
2018-06-17T23:48:57.903Z,17.60
2018-06-17T23:51:32.774Z,17.61
2018-06-17T23:54:07.527Z,17.70
2018-06-17T23:56:37.345Z,17.72
2018-06-17T23:59:06.986Z,17.77
